sensor_id;sensor_type;location;lat;lon;timestamp;pressure;altitude;pressure_sealevel;temperature;humidity
72336;BME280;65062;48.446;8.834;2023-05-12T00:00:29;97242.84;;;8.87;94.29
72336;BME280;65062;48.446;8.834;2023-05-12T00:03:29;97242.22;;;8.85;94.10
72336;BME280;65062;48.446;8.834;2023-05-12T00:06:30;97234.81;;;8.74;93.43
72336;BME280;65062;48.446;8.834;2023-05-12T00:09:30;97232.31;;;8.80;93.39
72336;BME280;65062;48.446;8.834;2023-05-12T00:12:30;97231.31;;;8.81;93.89
72336;BME280;65062;48.446;8.834;2023-05-12T00:15:31;97226.47;;;8.78;93.08
72336;BME280;65062;48.446;8.834;2023-05-12T00:18:31;97230.06;;;8.77;93.89
72336;BME280;65062;48.446;8.834;2023-05-12T00:21:32;97232.03;;;8.75;93.69
72336;BME280;65062;48.446;8.834;2023-05-12T00:24:32;97235.28;;;8.77;93.32
72336;BME280;65062;48.446;8.834;2023-05-12T00:27:32;97230.78;;;8.86;93.14
72336;BME280;65062;48.446;8.834;2023-05-12T00:30:33;97229.06;;;8.93;93.69
72336;BME280;65062;48.446;8.834;2023-05-12T00:33:33;97223.66;;;8.94;93.66
72336;BME280;65062;48.446;8.834;2023-05-12T00:36:34;97236.88;;;8.93;93.00
72336;BME280;65062;48.446;8.834;2023-05-12T00:39:34;97230.94;;;8.99;92.93
72336;BME280;65062;48.446;8.834;2023-05-12T00:42:35;97232.13;;;8.96;92.33
72336;BME280;65062;48.446;8.834;2023-05-12T00:45:35;97228.28;;;8.92;92.22
72336;BME280;65062;48.446;8.834;2023-05-12T00:48:36;97228.28;;;8.92;92.63
72336;BME280;65062;48.446;8.834;2023-05-12T00:51:37;97220.50;;;8.99;91.79
72336;BME280;65062;48.446;8.834;2023-05-12T00:54:37;97215.81;;;8.94;91.85
72336;BME280;65062;48.446;8.834;2023-05-12T00:57:39;97214.22;;;8.93;92.40
72336;BME280;65062;48.446;8.834;2023-05-12T01:00:40;97214.41;;;8.92;92.42
72336;BME280;65062;48.446;8.834;2023-05-12T01:03:41;97217.38;;;8.89;92.33
72336;BME280;65062;48.446;8.834;2023-05-12T01:06:48;97221.31;;;8.99;92.30
72336;BME280;65062;48.446;8.834;2023-05-12T01:09:56;97212.31;;;9.02;92.02
72336;BME280;65062;48.446;8.834;2023-05-12T01:12:57;97218.00;;;9.05;91.30
72336;BME280;65062;48.446;8.834;2023-05-12T01:15:59;97213.78;;;9.04;91.77
72336;BME280;65062;48.446;8.834;2023-05-12T01:19:05;97217.91;;;8.99;91.45
72336;BME280;65062;48.446;8.834;2023-05-12T01:22:07;97209.88;;;9.00;92.10
72336;BME280;65062;48.446;8.834;2023-05-12T01:25:10;97205.94;;;9.04;92.16
72336;BME280;65062;48.446;8.834;2023-05-12T01:28:14;97207.03;;;8.95;92.25
72336;BME280;65062;48.446;8.834;2023-05-12T01:31:16;97202.41;;;9.12;92.06
72336;BME280;65062;48.446;8.834;2023-05-12T01:34:16;97207.81;;;9.10;90.84
72336;BME280;65062;48.446;8.834;2023-05-12T01:37:20;97206.53;;;9.06;91.22
72336;BME280;65062;48.446;8.834;2023-05-12T01:40:20;97199.56;;;8.92;90.98
72336;BME280;65062;48.446;8.834;2023-05-12T01:43:21;97205.41;;;8.80;91.38
72336;BME280;65062;48.446;8.834;2023-05-12T01:46:21;97193.69;;;8.90;91.40
72336;BME280;65062;48.446;8.834;2023-05-12T01:49:21;97198.22;;;8.82;92.13
72336;BME280;65062;48.446;8.834;2023-05-12T01:52:22;97204.25;;;8.82;92.55
72336;BME280;65062;48.446;8.834;2023-05-12T01:55:24;97201.00;;;8.80;92.75
72336;BME280;65062;48.446;8.834;2023-05-12T01:58:24;97212.97;;;8.89;92.58
72336;BME280;65062;48.446;8.834;2023-05-12T02:01:24;97200.56;;;8.91;92.96
72336;BME280;65062;48.446;8.834;2023-05-12T02:04:27;97207.81;;;8.96;92.60
72336;BME280;65062;48.446;8.834;2023-05-12T02:07:28;97208.75;;;8.88;91.81
72336;BME280;65062;48.446;8.834;2023-05-12T02:10:28;97211.25;;;8.96;91.78
72336;BME280;65062;48.446;8.834;2023-05-12T02:13:29;97203.06;;;8.85;91.52
72336;BME280;65062;48.446;8.834;2023-05-12T02:16:29;97204.63;;;8.79;91.40
72336;BME280;65062;48.446;8.834;2023-05-12T02:19:30;97207.94;;;8.73;91.92
72336;BME280;65062;48.446;8.834;2023-05-12T02:22:30;97205.88;;;8.69;92.80
72336;BME280;65062;48.446;8.834;2023-05-12T02:25:30;97206.69;;;8.69;92.73
72336;BME280;65062;48.446;8.834;2023-05-12T02:28:31;97206.94;;;8.89;92.70
72336;BME280;65062;48.446;8.834;2023-05-12T02:31:32;97195.59;;;8.82;92.50
72336;BME280;65062;48.446;8.834;2023-05-12T02:34:32;97208.00;;;8.80;92.74
72336;BME280;65062;48.446;8.834;2023-05-12T02:37:33;97204.53;;;8.73;92.18
72336;BME280;65062;48.446;8.834;2023-05-12T02:40:33;97203.97;;;8.77;92.00
72336;BME280;65062;48.446;8.834;2023-05-12T02:43:33;97205.16;;;8.75;92.43
72336;BME280;65062;48.446;8.834;2023-05-12T02:46:34;97203.25;;;8.83;93.61
72336;BME280;65062;48.446;8.834;2023-05-12T02:49:34;97201.09;;;8.87;92.70
72336;BME280;65062;48.446;8.834;2023-05-12T02:52:35;97200.47;;;8.85;92.26
72336;BME280;65062;48.446;8.834;2023-05-12T02:55:35;97191.81;;;8.84;93.01
72336;BME280;65062;48.446;8.834;2023-05-12T02:58:36;97201.09;;;8.87;93.07
72336;BME280;65062;48.446;8.834;2023-05-12T03:01:36;97202.97;;;8.93;92.74
72336;BME280;65062;48.446;8.834;2023-05-12T03:04:37;97208.38;;;8.91;93.59
72336;BME280;65062;48.446;8.834;2023-05-12T03:07:37;97207.72;;;9.04;92.84
72336;BME280;65062;48.446;8.834;2023-05-12T03:10:37;97208.97;;;9.08;92.15
72336;BME280;65062;48.446;8.834;2023-05-12T03:13:38;97209.16;;;9.06;91.94
72336;BME280;65062;48.446;8.834;2023-05-12T03:16:38;97209.53;;;9.03;92.39
72336;BME280;65062;48.446;8.834;2023-05-12T03:19:39;97212.75;;;9.05;92.87
72336;BME280;65062;48.446;8.834;2023-05-12T03:22:39;97214.56;;;9.05;92.59
72336;BME280;65062;48.446;8.834;2023-05-12T03:25:39;97217.34;;;9.03;93.29
72336;BME280;65062;48.446;8.834;2023-05-12T03:28:40;97209.81;;;8.94;92.31
72336;BME280;65062;48.446;8.834;2023-05-12T03:31:40;97209.63;;;8.95;93.31
72336;BME280;65062;48.446;8.834;2023-05-12T03:34:40;97211.00;;;8.91;93.15
72336;BME280;65062;48.446;8.834;2023-05-12T03:37:41;97211.88;;;8.98;93.50
72336;BME280;65062;48.446;8.834;2023-05-12T03:40:41;97203.22;;;8.98;93.65
72336;BME280;65062;48.446;8.834;2023-05-12T03:43:41;97205.31;;;9.02;94.18
72336;BME280;65062;48.446;8.834;2023-05-12T03:46:42;97202.69;;;9.02;93.44
72336;BME280;65062;48.446;8.834;2023-05-12T03:49:42;97202.69;;;9.02;93.35
72336;BME280;65062;48.446;8.834;2023-05-12T03:52:43;97200.59;;;9.12;93.17
72336;BME280;65062;48.446;8.834;2023-05-12T03:55:43;97198.94;;;9.26;93.01
72336;BME280;65062;48.446;8.834;2023-05-12T03:58:44;97198.06;;;9.19;92.96
72336;BME280;65062;48.446;8.834;2023-05-12T04:01:46;97190.16;;;9.12;92.41
72336;BME280;65062;48.446;8.834;2023-05-12T04:04:46;97193.50;;;9.06;92.78
72336;BME280;65062;48.446;8.834;2023-05-12T04:07:47;97193.13;;;9.09;93.06
72336;BME280;65062;48.446;8.834;2023-05-12T04:10:47;97185.94;;;9.11;93.30
72336;BME280;65062;48.446;8.834;2023-05-12T04:13:47;97193.81;;;9.18;93.16
72336;BME280;65062;48.446;8.834;2023-05-12T04:16:48;97195.19;;;9.14;92.58
72336;BME280;65062;48.446;8.834;2023-05-12T04:19:48;97196.53;;;9.24;92.56
72336;BME280;65062;48.446;8.834;2023-05-12T04:22:48;97199.28;;;9.37;92.07
72336;BME280;65062;48.446;8.834;2023-05-12T04:25:50;97197.13;;;9.41;91.69
72336;BME280;65062;48.446;8.834;2023-05-12T04:28:50;97208.13;;;9.36;91.56
72336;BME280;65062;48.446;8.834;2023-05-12T04:31:53;97202.88;;;9.36;91.99
72336;BME280;65062;48.446;8.834;2023-05-12T04:34:53;97196.09;;;9.42;92.15
72336;BME280;65062;48.446;8.834;2023-05-12T04:37:55;97202.38;;;9.47;91.97
72336;BME280;65062;48.446;8.834;2023-05-12T04:40:59;97207.97;;;9.44;91.75
72336;BME280;65062;48.446;8.834;2023-05-12T04:44:00;97213.56;;;9.41;91.68
72336;BME280;65062;48.446;8.834;2023-05-12T04:47:00;97213.56;;;9.41;91.80
72336;BME280;65062;48.446;8.834;2023-05-12T04:50:01;97220.63;;;9.41;91.55
72336;BME280;65062;48.446;8.834;2023-05-12T04:53:01;97229.16;;;9.49;91.28
72336;BME280;65062;48.446;8.834;2023-05-12T04:56:02;97223.00;;;9.57;90.88
72336;BME280;65062;48.446;8.834;2023-05-12T04:59:02;97236.25;;;9.55;90.80
72336;BME280;65062;48.446;8.834;2023-05-12T05:02:03;97229.03;;;9.57;90.32
72336;BME280;65062;48.446;8.834;2023-05-12T05:05:04;97227.97;;;9.52;90.59
72336;BME280;65062;48.446;8.834;2023-05-12T05:08:04;97236.78;;;9.51;90.33
72336;BME280;65062;48.446;8.834;2023-05-12T05:11:05;97233.19;;;9.52;90.61
72336;BME280;65062;48.446;8.834;2023-05-12T05:14:05;97244.81;;;9.49;90.75
72336;BME280;65062;48.446;8.834;2023-05-12T05:17:07;97235.00;;;9.51;90.66
72336;BME280;65062;48.446;8.834;2023-05-12T05:20:07;97229.09;;;9.64;90.28
72336;BME280;65062;48.446;8.834;2023-05-12T05:23:08;97231.59;;;9.72;90.47
72336;BME280;65062;48.446;8.834;2023-05-12T05:26:08;97231.22;;;9.75;90.04
72336;BME280;65062;48.446;8.834;2023-05-12T05:29:09;97230.28;;;9.82;89.85
72336;BME280;65062;48.446;8.834;2023-05-12T05:32:09;97233.50;;;9.84;89.13
72336;BME280;65062;48.446;8.834;2023-05-12T05:35:10;97236.94;;;9.85;89.04
72336;BME280;65062;48.446;8.834;2023-05-12T05:38:10;97243.50;;;9.95;88.23
72336;BME280;65062;48.446;8.834;2023-05-12T05:41:10;97242.28;;;9.98;87.48
72336;BME280;65062;48.446;8.834;2023-05-12T05:44:11;97235.50;;;10.03;88.26
72336;BME280;65062;48.446;8.834;2023-05-12T05:47:11;97242.00;;;10.07;87.67
72336;BME280;65062;48.446;8.834;2023-05-12T05:50:11;97242.75;;;10.01;87.06
72336;BME280;65062;48.446;8.834;2023-05-12T05:53:12;97243.34;;;10.03;87.34
72336;BME280;65062;48.446;8.834;2023-05-12T05:56:12;97246.53;;;10.20;87.31
72336;BME280;65062;48.446;8.834;2023-05-12T05:59:12;97237.50;;;10.22;86.94
72336;BME280;65062;48.446;8.834;2023-05-12T06:02:13;97228.19;;;10.41;85.14
72336;BME280;65062;48.446;8.834;2023-05-12T06:05:14;97238.94;;;10.52;85.04
72336;BME280;65062;48.446;8.834;2023-05-12T06:08:14;97233.34;;;10.62;84.60
72336;BME280;65062;48.446;8.834;2023-05-12T06:11:15;97237.81;;;10.68;85.63
72336;BME280;65062;48.446;8.834;2023-05-12T06:14:15;97245.63;;;10.89;84.85
72336;BME280;65062;48.446;8.834;2023-05-12T06:17:16;97249.31;;;11.01;84.66
72336;BME280;65062;48.446;8.834;2023-05-12T06:20:16;97255.44;;;11.21;84.14
72336;BME280;65062;48.446;8.834;2023-05-12T06:23:17;97255.47;;;11.28;84.47
72336;BME280;65062;48.446;8.834;2023-05-12T06:26:17;97256.94;;;11.43;83.48
72336;BME280;65062;48.446;8.834;2023-05-12T06:29:18;97256.78;;;11.51;82.00
72336;BME280;65062;48.446;8.834;2023-05-12T06:32:20;97251.81;;;11.69;82.02
72336;BME280;65062;48.446;8.834;2023-05-12T06:35:20;97255.66;;;11.73;79.93
72336;BME280;65062;48.446;8.834;2023-05-12T06:38:20;97252.69;;;12.02;80.29
72336;BME280;65062;48.446;8.834;2023-05-12T06:41:21;97261.97;;;12.31;78.26
72336;BME280;65062;48.446;8.834;2023-05-12T06:44:24;97251.31;;;12.45;76.22
72336;BME280;65062;48.446;8.834;2023-05-12T06:47:24;97259.16;;;12.65;76.82
72336;BME280;65062;48.446;8.834;2023-05-12T06:50:24;97259.13;;;12.78;76.94
72336;BME280;65062;48.446;8.834;2023-05-12T06:53:25;97261.53;;;12.86;75.71
72336;BME280;65062;48.446;8.834;2023-05-12T06:56:25;97265.59;;;12.76;75.65
72336;BME280;65062;48.446;8.834;2023-05-12T06:59:26;97258.94;;;12.66;77.14
72336;BME280;65062;48.446;8.834;2023-05-12T07:02:26;97257.53;;;12.77;76.57
72336;BME280;65062;48.446;8.834;2023-05-12T07:05:27;97253.03;;;12.97;76.27
72336;BME280;65062;48.446;8.834;2023-05-12T07:08:27;97257.66;;;13.21;75.89
72336;BME280;65062;48.446;8.834;2023-05-12T07:11:27;97260.00;;;13.42;74.87
72336;BME280;65062;48.446;8.834;2023-05-12T07:14:28;97253.31;;;13.40;73.84
72336;BME280;65062;48.446;8.834;2023-05-12T07:17:28;97253.78;;;13.30;74.20
72336;BME280;65062;48.446;8.834;2023-05-12T07:20:28;97251.00;;;13.19;74.77
72336;BME280;65062;48.446;8.834;2023-05-12T07:23:29;97250.59;;;13.15;73.82
72336;BME280;65062;48.446;8.834;2023-05-12T07:26:30;97259.25;;;13.29;74.97
72336;BME280;65062;48.446;8.834;2023-05-12T07:29:30;97261.84;;;13.35;73.68
72336;BME280;65062;48.446;8.834;2023-05-12T07:32:30;97260.63;;;13.38;73.53
72336;BME280;65062;48.446;8.834;2023-05-12T07:35:31;97261.53;;;13.63;72.51
72336;BME280;65062;48.446;8.834;2023-05-12T07:38:31;97262.28;;;13.70;72.30
72336;BME280;65062;48.446;8.834;2023-05-12T07:41:32;97265.25;;;13.80;71.23
72336;BME280;65062;48.446;8.834;2023-05-12T07:44:32;97256.66;;;13.97;69.26
72336;BME280;65062;48.446;8.834;2023-05-12T07:47:32;97254.81;;;14.04;69.79
72336;BME280;65062;48.446;8.834;2023-05-12T07:50:33;97260.06;;;13.73;70.55
72336;BME280;65062;48.446;8.834;2023-05-12T07:53:34;97247.28;;;14.08;69.52
72336;BME280;65062;48.446;8.834;2023-05-12T07:56:34;97248.25;;;14.44;69.71
72336;BME280;65062;48.446;8.834;2023-05-12T07:59:35;97247.94;;;14.34;69.73
72336;BME280;65062;48.446;8.834;2023-05-12T08:02:39;97249.56;;;14.60;68.85
72336;BME280;65062;48.446;8.834;2023-05-12T08:05:39;97245.72;;;14.56;69.67
72336;BME280;65062;48.446;8.834;2023-05-12T08:08:40;97254.13;;;14.89;68.58
72336;BME280;65062;48.446;8.834;2023-05-12T08:11:40;97245.94;;;15.15;68.93
72336;BME280;65062;48.446;8.834;2023-05-12T08:14:41;97242.50;;;15.33;65.89
72336;BME280;65062;48.446;8.834;2023-05-12T08:17:41;97248.22;;;15.12;67.32
72336;BME280;65062;48.446;8.834;2023-05-12T08:20:42;97248.72;;;15.02;67.68
72336;BME280;65062;48.446;8.834;2023-05-12T08:23:42;97242.41;;;15.03;66.68
72336;BME280;65062;48.446;8.834;2023-05-12T08:26:43;97244.03;;;15.22;67.26
72336;BME280;65062;48.446;8.834;2023-05-12T08:29:44;97246.44;;;15.60;66.72
72336;BME280;65062;48.446;8.834;2023-05-12T08:32:44;97238.66;;;15.94;65.92
72336;BME280;65062;48.446;8.834;2023-05-12T08:35:45;97237.25;;;16.21;62.87
72336;BME280;65062;48.446;8.834;2023-05-12T08:38:45;97242.66;;;16.26;63.25
72336;BME280;65062;48.446;8.834;2023-05-12T08:45:10;97234.69;;;16.03;62.65
72336;BME280;65062;48.446;8.834;2023-05-12T08:48:11;97241.72;;;16.21;61.10
72336;BME280;65062;48.446;8.834;2023-05-12T08:51:13;97241.47;;;16.11;62.10
72336;BME280;65062;48.446;8.834;2023-05-12T08:54:14;97240.19;;;16.13;61.15
72336;BME280;65062;48.446;8.834;2023-05-12T08:57:15;97237.19;;;15.98;61.11
72336;BME280;65062;48.446;8.834;2023-05-12T09:00:16;97245.03;;;16.16;62.13
72336;BME280;65062;48.446;8.834;2023-05-12T09:03:19;97250.75;;;16.54;59.44
72336;BME280;65062;48.446;8.834;2023-05-12T09:06:19;97247.38;;;16.36;59.53
72336;BME280;65062;48.446;8.834;2023-05-12T09:09:20;97246.41;;;16.48;58.83
72336;BME280;65062;48.446;8.834;2023-05-12T09:12:20;97246.91;;;16.39;59.96
72336;BME280;65062;48.446;8.834;2023-05-12T09:15:26;97243.69;;;16.25;61.93
72336;BME280;65062;48.446;8.834;2023-05-12T09:18:45;97250.41;;;16.51;61.28
72336;BME280;65062;48.446;8.834;2023-05-12T09:21:47;97245.59;;;16.83;58.58
72336;BME280;65062;48.446;8.834;2023-05-12T09:24:47;97240.69;;;17.37;57.12
72336;BME280;65062;48.446;8.834;2023-05-12T09:27:52;97245.00;;;17.15;56.85
72336;BME280;65062;48.446;8.834;2023-05-12T09:30:53;97238.25;;;16.73;58.33
72336;BME280;65062;48.446;8.834;2023-05-12T09:33:53;97239.41;;;16.65;58.70
72336;BME280;65062;48.446;8.834;2023-05-12T09:36:55;97240.44;;;16.76;59.68
72336;BME280;65062;48.446;8.834;2023-05-12T09:40:02;97240.78;;;16.91;58.90
72336;BME280;65062;48.446;8.834;2023-05-12T09:43:07;97243.75;;;17.18;57.78
72336;BME280;65062;48.446;8.834;2023-05-12T09:46:07;97241.22;;;17.62;58.54
72336;BME280;65062;48.446;8.834;2023-05-12T09:49:08;97244.03;;;17.84;56.61
72336;BME280;65062;48.446;8.834;2023-05-12T09:52:09;97245.91;;;18.00;55.19
72336;BME280;65062;48.446;8.834;2023-05-12T09:55:10;97241.41;;;18.00;55.04
72336;BME280;65062;48.446;8.834;2023-05-12T09:58:14;97240.75;;;17.65;55.10
72336;BME280;65062;48.446;8.834;2023-05-12T10:01:17;97242.56;;;17.37;56.29
72336;BME280;65062;48.446;8.834;2023-05-12T10:04:18;97238.59;;;17.00;56.78
72336;BME280;65062;48.446;8.834;2023-05-12T10:07:21;97234.56;;;16.74;57.18
72336;BME280;65062;48.446;8.834;2023-05-12T10:10:26;97233.13;;;17.29;57.93
72336;BME280;65062;48.446;8.834;2023-05-12T10:13:27;97240.94;;;17.75;56.12
72336;BME280;65062;48.446;8.834;2023-05-12T10:16:28;97228.75;;;18.02;55.69
72336;BME280;65062;48.446;8.834;2023-05-12T10:19:29;97225.31;;;18.18;54.96
72336;BME280;65062;48.446;8.834;2023-05-12T10:22:29;97231.41;;;18.02;54.28
72336;BME280;65062;48.446;8.834;2023-05-12T10:25:32;97235.41;;;17.77;54.07
72336;BME280;65062;48.446;8.834;2023-05-12T10:28:33;97235.00;;;17.96;54.92
72336;BME280;65062;48.446;8.834;2023-05-12T10:31:35;97233.00;;;17.75;55.61
72336;BME280;65062;48.446;8.834;2023-05-12T10:34:36;97232.47;;;17.73;54.40
72336;BME280;65062;48.446;8.834;2023-05-12T10:37:36;97228.41;;;17.82;53.83
72336;BME280;65062;48.446;8.834;2023-05-12T10:43:50;97227.84;;;18.41;53.04
72336;BME280;65062;48.446;8.834;2023-05-12T10:46:57;97222.63;;;18.02;54.26
72336;BME280;65062;48.446;8.834;2023-05-12T10:50:00;97219.38;;;18.11;53.16
72336;BME280;65062;48.446;8.834;2023-05-12T10:53:01;97217.97;;;18.53;54.36
72336;BME280;65062;48.446;8.834;2023-05-12T10:56:05;97223.06;;;18.77;51.12
72336;BME280;65062;48.446;8.834;2023-05-12T10:59:22;97221.22;;;19.32;47.76
72336;BME280;65062;48.446;8.834;2023-05-12T11:02:25;97219.00;;;19.45;50.44
72336;BME280;65062;48.446;8.834;2023-05-12T11:05:32;97226.38;;;19.22;51.35
72336;BME280;65062;48.446;8.834;2023-05-12T11:08:35;97224.31;;;19.45;50.07
72336;BME280;65062;48.446;8.834;2023-05-12T11:11:36;97222.53;;;19.13;50.82
72336;BME280;65062;48.446;8.834;2023-05-12T11:14:38;97225.28;;;19.39;50.41
72336;BME280;65062;48.446;8.834;2023-05-12T11:17:39;97225.38;;;19.71;50.53
72336;BME280;65062;48.446;8.834;2023-05-12T11:20:39;97227.59;;;20.05;47.57
72336;BME280;65062;48.446;8.834;2023-05-12T11:23:40;97226.56;;;20.33;46.29
72336;BME280;65062;48.446;8.834;2023-05-12T11:26:41;97228.31;;;19.96;46.89
72336;BME280;65062;48.446;8.834;2023-05-12T11:29:42;97229.94;;;19.97;48.71
72336;BME280;65062;48.446;8.834;2023-05-12T11:32:44;97222.88;;;19.86;49.13
72336;BME280;65062;48.446;8.834;2023-05-12T11:35:44;97227.59;;;20.05;49.22
72336;BME280;65062;48.446;8.834;2023-05-12T11:38:49;97225.09;;;19.67;49.17
72336;BME280;65062;48.446;8.834;2023-05-12T11:41:50;97223.78;;;19.96;46.37
72336;BME280;65062;48.446;8.834;2023-05-12T11:44:50;97218.28;;;19.55;44.64
72336;BME280;65062;48.446;8.834;2023-05-12T11:47:53;97224.00;;;19.42;47.98
72336;BME280;65062;48.446;8.834;2023-05-12T11:51:04;97225.72;;;19.53;48.18
72336;BME280;65062;48.446;8.834;2023-05-12T11:54:05;97219.81;;;19.72;47.32
72336;BME280;65062;48.446;8.834;2023-05-12T11:57:06;97224.47;;;19.39;48.53
72336;BME280;65062;48.446;8.834;2023-05-12T12:00:07;97225.06;;;19.03;50.88
72336;BME280;65062;48.446;8.834;2023-05-12T12:03:11;97231.09;;;18.98;52.07
72336;BME280;65062;48.446;8.834;2023-05-12T12:06:13;97231.81;;;18.27;52.21
72336;BME280;65062;48.446;8.834;2023-05-12T12:09:13;97235.19;;;17.78;54.54
72336;BME280;65062;48.446;8.834;2023-05-12T12:12:14;97246.09;;;17.54;55.21
72336;BME280;65062;48.446;8.834;2023-05-12T12:15:14;97251.50;;;17.36;56.88
72336;BME280;65062;48.446;8.834;2023-05-12T12:18:14;97265.59;;;17.02;57.33
72336;BME280;65062;48.446;8.834;2023-05-12T12:21:18;97269.84;;;16.56;62.94
72336;BME280;65062;48.446;8.834;2023-05-12T12:24:20;97278.44;;;15.81;64.93
72336;BME280;65062;48.446;8.834;2023-05-12T12:27:20;97274.44;;;15.25;66.35
72336;BME280;65062;48.446;8.834;2023-05-12T12:30:21;97275.59;;;14.68;70.94
72336;BME280;65062;48.446;8.834;2023-05-12T12:33:21;97278.53;;;14.60;74.81
72336;BME280;65062;48.446;8.834;2023-05-12T12:36:21;97281.09;;;14.42;74.87
72336;BME280;65062;48.446;8.834;2023-05-12T12:39:22;97278.41;;;14.17;74.42
72336;BME280;65062;48.446;8.834;2023-05-12T12:42:22;97273.56;;;14.14;74.24
72336;BME280;65062;48.446;8.834;2023-05-12T12:45:23;97278.09;;;14.01;76.86
72336;BME280;65062;48.446;8.834;2023-05-12T12:48:23;97271.84;;;14.33;75.14
72336;BME280;65062;48.446;8.834;2023-05-12T12:51:25;97268.72;;;14.67;72.88
72336;BME280;65062;48.446;8.834;2023-05-12T12:54:26;97276.03;;;14.90;73.10
72336;BME280;65062;48.446;8.834;2023-05-12T12:57:27;97272.91;;;15.35;71.56
72336;BME280;65062;48.446;8.834;2023-05-12T13:00:28;97276.25;;;18.09;66.27
72336;BME280;65062;48.446;8.834;2023-05-12T13:03:28;97272.97;;;19.99;59.23
72336;BME280;65062;48.446;8.834;2023-05-12T13:06:29;97267.41;;;20.53;54.32
72336;BME280;65062;48.446;8.834;2023-05-12T13:09:29;97264.41;;;21.13;52.39
72336;BME280;65062;48.446;8.834;2023-05-12T13:12:29;97270.75;;;22.30;50.07
72336;BME280;65062;48.446;8.834;2023-05-12T13:15:30;97267.66;;;24.98;43.98
72336;BME280;65062;48.446;8.834;2023-05-12T13:18:31;97265.09;;;24.83;42.18
72336;BME280;65062;48.446;8.834;2023-05-12T13:21:31;97265.75;;;23.78;45.43
72336;BME280;65062;48.446;8.834;2023-05-12T13:24:32;97259.47;;;23.39;44.20
72336;BME280;65062;48.446;8.834;2023-05-12T13:27:33;97259.66;;;23.67;43.97
72336;BME280;65062;48.446;8.834;2023-05-12T13:30:33;97266.88;;;23.67;45.46
72336;BME280;65062;48.446;8.834;2023-05-12T13:33:34;97276.88;;;22.36;46.51
72336;BME280;65062;48.446;8.834;2023-05-12T13:36:34;97269.81;;;20.55;52.44
72336;BME280;65062;48.446;8.834;2023-05-12T13:39:34;97274.25;;;19.48;56.08
72336;BME280;65062;48.446;8.834;2023-05-12T13:42:35;97274.16;;;18.89;55.87
72336;BME280;65062;48.446;8.834;2023-05-12T13:45:35;97279.25;;;17.84;59.78
72336;BME280;65062;48.446;8.834;2023-05-12T13:48:35;97292.13;;;18.09;59.25
72336;BME280;65062;48.446;8.834;2023-05-12T13:51:36;97283.75;;;18.28;58.48
72336;BME280;65062;48.446;8.834;2023-05-12T13:54:36;97286.13;;;18.13;58.52
72336;BME280;65062;48.446;8.834;2023-05-12T13:57:36;97276.53;;;18.68;58.73
72336;BME280;65062;48.446;8.834;2023-05-12T14:00:37;97282.06;;;18.50;59.27
72336;BME280;65062;48.446;8.834;2023-05-12T14:03:37;97276.75;;;18.67;56.32
72336;BME280;65062;48.446;8.834;2023-05-12T14:06:37;97279.25;;;18.40;56.12
72336;BME280;65062;48.446;8.834;2023-05-12T14:09:38;97276.63;;;18.74;58.33
72336;BME280;65062;48.446;8.834;2023-05-12T14:12:39;97271.41;;;18.34;57.19
72336;BME280;65062;48.446;8.834;2023-05-12T14:15:41;97277.56;;;17.67;59.61
72336;BME280;65062;48.446;8.834;2023-05-12T14:18:41;97272.63;;;17.70;61.55
72336;BME280;65062;48.446;8.834;2023-05-12T14:21:42;97268.47;;;18.02;62.62
72336;BME280;65062;48.446;8.834;2023-05-12T14:24:43;97267.47;;;18.20;61.35
72336;BME280;65062;48.446;8.834;2023-05-12T14:27:43;97267.91;;;18.45;58.57
72336;BME280;65062;48.446;8.834;2023-05-12T14:30:44;97266.91;;;18.34;58.28
72336;BME280;65062;48.446;8.834;2023-05-12T14:33:44;97271.88;;;18.14;57.26
72336;BME280;65062;48.446;8.834;2023-05-12T14:36:45;97265.09;;;18.85;55.88
72336;BME280;65062;48.446;8.834;2023-05-12T14:39:45;97264.63;;;21.58;48.51
72336;BME280;65062;48.446;8.834;2023-05-12T14:42:46;97264.47;;;21.75;45.93
72336;BME280;65062;48.446;8.834;2023-05-12T14:45:47;97260.06;;;22.20;43.45
72336;BME280;65062;48.446;8.834;2023-05-12T14:48:53;97250.28;;;23.70;43.63
72336;BME280;65062;48.446;8.834;2023-05-12T14:51:53;97247.88;;;25.46;38.98
72336;BME280;65062;48.446;8.834;2023-05-12T14:54:54;97259.28;;;23.00;42.87
72336;BME280;65062;48.446;8.834;2023-05-12T14:57:54;97262.97;;;21.47;48.06
72336;BME280;65062;48.446;8.834;2023-05-12T15:00:55;97263.50;;;20.29;49.18
72336;BME280;65062;48.446;8.834;2023-05-12T15:03:55;97262.50;;;19.06;55.18
72336;BME280;65062;48.446;8.834;2023-05-12T15:06:55;97274.25;;;18.77;54.45
72336;BME280;65062;48.446;8.834;2023-05-12T15:09:56;97270.16;;;18.69;53.26
72336;BME280;65062;48.446;8.834;2023-05-12T15:12:56;97270.25;;;18.41;54.84
72336;BME280;65062;48.446;8.834;2023-05-12T15:15:57;97273.88;;;18.07;56.69
72336;BME280;65062;48.446;8.834;2023-05-12T15:18:57;97270.50;;;17.56;57.68
72336;BME280;65062;48.446;8.834;2023-05-12T15:21:57;97268.81;;;17.78;58.14
72336;BME280;65062;48.446;8.834;2023-05-12T15:24:58;97270.31;;;20.20;53.01
72336;BME280;65062;48.446;8.834;2023-05-12T15:27:59;97265.59;;;21.37;49.35
72336;BME280;65062;48.446;8.834;2023-05-12T15:30:59;97265.13;;;21.45;46.47
72336;BME280;65062;48.446;8.834;2023-05-12T15:34:00;97270.38;;;21.87;45.76
72336;BME280;65062;48.446;8.834;2023-05-12T15:37:00;97272.06;;;22.33;45.04
72336;BME280;65062;48.446;8.834;2023-05-12T15:40:00;97273.19;;;21.60;45.05
72336;BME280;65062;48.446;8.834;2023-05-12T15:43:01;97268.09;;;21.07;47.33
72336;BME280;65062;48.446;8.834;2023-05-12T15:46:02;97268.81;;;20.08;49.70
72336;BME280;65062;48.446;8.834;2023-05-12T15:49:03;97266.09;;;19.17;51.50
72336;BME280;65062;48.446;8.834;2023-05-12T15:52:04;97261.63;;;19.01;52.43
72336;BME280;65062;48.446;8.834;2023-05-12T15:55:04;97272.47;;;18.99;52.33
72336;BME280;65062;48.446;8.834;2023-05-12T15:58:05;97265.38;;;19.05;53.67
72336;BME280;65062;48.446;8.834;2023-05-12T16:01:07;97270.63;;;19.00;52.97
72336;BME280;65062;48.446;8.834;2023-05-12T16:04:07;97270.09;;;18.20;56.60
72336;BME280;65062;48.446;8.834;2023-05-12T16:07:08;97272.59;;;18.10;55.97
72336;BME280;65062;48.446;8.834;2023-05-12T16:10:08;97271.16;;;18.19;56.65